sensor_id;sensor_type;location;lat;lon;timestamp;P1;durP1;ratioP1;P2;durP2;ratioP2
69894;SDS011;57172;52.034;5.090;2022-12-07T00:01:09;11.32;;;6.47;;
69894;SDS011;57172;52.034;5.090;2022-12-07T00:03:40;16.10;;;6.70;;
69894;SDS011;57172;52.034;5.090;2022-12-07T00:06:11;12.60;;;5.55;;
69894;SDS011;57172;52.034;5.090;2022-12-07T00:08:39;11.93;;;5.43;;
69894;SDS011;57172;52.034;5.090;2022-12-07T00:13:38;14.73;;;5.65;;
69894;SDS011;57172;52.034;5.090;2022-12-07T00:16:10;11.70;;;5.28;;
69894;SDS011;57172;52.034;5.090;2022-12-07T00:18:39;12.68;;;5.10;;
69894;SDS011;57172;52.034;5.090;2022-12-07T00:21:09;10.13;;;5.30;;
69894;SDS011;57172;52.034;5.090;2022-12-07T00:23:37;11.95;;;5.20;;
69894;SDS011;57172;52.034;5.090;2022-12-07T00:26:06;10.02;;;4.90;;
69894;SDS011;57172;52.034;5.090;2022-12-07T00:28:35;10.75;;;4.30;;
69894;SDS011;57172;52.034;5.090;2022-12-07T00:31:03;9.10;;;4.70;;
69894;SDS011;57172;52.034;5.090;2022-12-07T00:33:33;11.73;;;4.80;;
69894;SDS011;57172;52.034;5.090;2022-12-07T00:36:01;11.18;;;4.90;;
69894;SDS011;57172;52.034;5.090;2022-12-07T00:38:30;11.30;;;4.72;;
69894;SDS011;57172;52.034;5.090;2022-12-07T00:40:59;12.32;;;4.78;;
69894;SDS011;57172;52.034;5.090;2022-12-07T00:43:30;12.65;;;4.85;;
69894;SDS011;57172;52.034;5.090;2022-12-07T00:45:58;10.57;;;4.60;;
69894;SDS011;57172;52.034;5.090;2022-12-07T00:48:25;11.93;;;4.32;;
69894;SDS011;57172;52.034;5.090;2022-12-07T00:50:52;13.65;;;4.75;;
69894;SDS011;57172;52.034;5.090;2022-12-07T00:53:19;9.20;;;4.30;;
69894;SDS011;57172;52.034;5.090;2022-12-07T00:55:46;10.43;;;4.30;;
69894;SDS011;57172;52.034;5.090;2022-12-07T00:58:13;11.40;;;4.88;;
69894;SDS011;57172;52.034;5.090;2022-12-07T01:00:41;13.30;;;4.85;;
69894;SDS011;57172;52.034;5.090;2022-12-07T01:03:10;11.57;;;4.60;;
69894;SDS011;57172;52.034;5.090;2022-12-07T01:05:37;9.55;;;4.80;;
69894;SDS011;57172;52.034;5.090;2022-12-07T01:08:05;11.48;;;4.60;;
69894;SDS011;57172;52.034;5.090;2022-12-07T01:10:33;14.52;;;4.82;;
69894;SDS011;57172;52.034;5.090;2022-12-07T01:12:59;11.73;;;4.68;;
69894;SDS011;57172;52.034;5.090;2022-12-07T01:15:26;11.98;;;4.70;;
69894;SDS011;57172;52.034;5.090;2022-12-07T01:17:53;10.25;;;4.30;;
69894;SDS011;57172;52.034;5.090;2022-12-07T01:20:21;10.95;;;4.57;;
69894;SDS011;57172;52.034;5.090;2022-12-07T01:22:48;11.13;;;4.40;;
69894;SDS011;57172;52.034;5.090;2022-12-07T01:25:15;12.63;;;4.30;;
69894;SDS011;57172;52.034;5.090;2022-12-07T01:27:42;9.18;;;3.90;;
69894;SDS011;57172;52.034;5.090;2022-12-07T01:30:09;11.23;;;4.43;;
69894;SDS011;57172;52.034;5.090;2022-12-07T01:32:37;10.55;;;4.10;;
69894;SDS011;57172;52.034;5.090;2022-12-07T01:35:03;8.75;;;3.72;;
69894;SDS011;57172;52.034;5.090;2022-12-07T01:37:37;9.60;;;4.15;;
69894;SDS011;57172;52.034;5.090;2022-12-07T01:40:06;15.60;;;4.38;;
69894;SDS011;57172;52.034;5.090;2022-12-07T01:42:34;9.30;;;3.85;;
69894;SDS011;57172;52.034;5.090;2022-12-07T01:47:59;12.10;;;4.00;;
69894;SDS011;57172;52.034;5.090;2022-12-07T01:50:26;10.30;;;3.97;;
69894;SDS011;57172;52.034;5.090;2022-12-07T01:52:55;9.82;;;3.78;;
69894;SDS011;57172;52.034;5.090;2022-12-07T01:55:24;9.63;;;3.80;;
69894;SDS011;57172;52.034;5.090;2022-12-07T01:57:52;9.48;;;3.53;;
69894;SDS011;57172;52.034;5.090;2022-12-07T02:00:20;8.35;;;3.40;;
69894;SDS011;57172;52.034;5.090;2022-12-07T02:02:52;7.95;;;3.33;;
69894;SDS011;57172;52.034;5.090;2022-12-07T02:05:24;9.55;;;3.17;;
69894;SDS011;57172;52.034;5.090;2022-12-07T02:07:53;7.53;;;3.00;;
69894;SDS011;57172;52.034;5.090;2022-12-07T02:10:24;11.20;;;3.45;;
69894;SDS011;57172;52.034;5.090;2022-12-07T02:13:13;11.23;;;3.08;;
69894;SDS011;57172;52.034;5.090;2022-12-07T02:22:18;9.35;;;2.75;;
69894;SDS011;57172;52.034;5.090;2022-12-07T02:27:39;5.55;;;2.28;;
69894;SDS011;57172;52.034;5.090;2022-12-07T02:30:20;7.53;;;2.42;;
69894;SDS011;57172;52.034;5.090;2022-12-07T02:35:34;9.85;;;2.50;;
69894;SDS011;57172;52.034;5.090;2022-12-07T02:38:28;7.18;;;2.33;;
69894;SDS011;57172;52.034;5.090;2022-12-07T02:41:27;6.88;;;2.20;;
69894;SDS011;57172;52.034;5.090;2022-12-07T02:44:07;8.10;;;2.15;;
69894;SDS011;57172;52.034;5.090;2022-12-07T02:46:40;6.38;;;2.20;;
69894;SDS011;57172;52.034;5.090;2022-12-07T02:52:03;6.95;;;2.10;;
69894;SDS011;57172;52.034;5.090;2022-12-07T02:54:30;5.07;;;2.00;;
69894;SDS011;57172;52.034;5.090;2022-12-07T03:10:40;10.40;;;2.17;;
69894;SDS011;57172;52.034;5.090;2022-12-07T03:15:43;8.15;;;1.95;;
69894;SDS011;57172;52.034;5.090;2022-12-07T03:18:16;5.60;;;2.33;;
69894;SDS011;57172;52.034;5.090;2022-12-07T03:20:46;6.22;;;1.90;;
69894;SDS011;57172;52.034;5.090;2022-12-07T03:23:16;4.53;;;2.03;;
69894;SDS011;57172;52.034;5.090;2022-12-07T03:25:49;5.18;;;2.03;;
69894;SDS011;57172;52.034;5.090;2022-12-07T03:28:32;4.60;;;1.80;;
69894;SDS011;57172;52.034;5.090;2022-12-07T03:31:04;6.95;;;2.03;;
69894;SDS011;57172;52.034;5.090;2022-12-07T03:33:40;6.05;;;1.95;;
69894;SDS011;57172;52.034;5.090;2022-12-07T03:36:23;6.43;;;2.00;;
69894;SDS011;57172;52.034;5.090;2022-12-07T03:39:00;8.27;;;1.95;;
69894;SDS011;57172;52.034;5.090;2022-12-07T03:42:05;7.20;;;2.00;;
69894;SDS011;57172;52.034;5.090;2022-12-07T03:44:34;5.88;;;1.70;;
69894;SDS011;57172;52.034;5.090;2022-12-07T03:47:04;7.07;;;1.83;;
69894;SDS011;57172;52.034;5.090;2022-12-07T03:49:36;7.05;;;1.90;;
69894;SDS011;57172;52.034;5.090;2022-12-07T03:54:56;7.88;;;1.80;;
69894;SDS011;57172;52.034;5.090;2022-12-07T03:57:25;5.65;;;1.80;;
69894;SDS011;57172;52.034;5.090;2022-12-07T03:59:54;6.07;;;1.75;;
69894;SDS011;57172;52.034;5.090;2022-12-07T04:02:22;5.35;;;1.70;;
69894;SDS011;57172;52.034;5.090;2022-12-07T04:04:51;3.83;;;1.48;;
69894;SDS011;57172;52.034;5.090;2022-12-07T04:07:18;9.40;;;1.90;;
69894;SDS011;57172;52.034;5.090;2022-12-07T04:09:45;6.40;;;1.80;;
69894;SDS011;57172;52.034;5.090;2022-12-07T04:12:12;6.60;;;1.90;;
69894;SDS011;57172;52.034;5.090;2022-12-07T04:14:38;5.05;;;1.73;;
69894;SDS011;57172;52.034;5.090;2022-12-07T04:17:05;8.27;;;1.70;;
69894;SDS011;57172;52.034;5.090;2022-12-07T04:19:32;6.30;;;1.95;;
69894;SDS011;57172;52.034;5.090;2022-12-07T04:22:01;3.60;;;1.92;;
69894;SDS011;57172;52.034;5.090;2022-12-07T04:24:29;7.57;;;2.00;;
69894;SDS011;57172;52.034;5.090;2022-12-07T04:26:56;11.80;;;2.25;;
69894;SDS011;57172;52.034;5.090;2022-12-07T04:29:23;8.27;;;1.70;;
69894;SDS011;57172;52.034;5.090;2022-12-07T04:31:50;8.15;;;1.70;;
69894;SDS011;57172;52.034;5.090;2022-12-07T04:34:18;7.93;;;1.60;;
69894;SDS011;57172;52.034;5.090;2022-12-07T04:36:46;3.58;;;1.50;;
69894;SDS011;57172;52.034;5.090;2022-12-07T04:39:19;7.25;;;1.90;;
69894;SDS011;57172;52.034;5.090;2022-12-07T04:41:48;6.32;;;1.70;;
69894;SDS011;57172;52.034;5.090;2022-12-07T04:44:15;8.43;;;1.90;;
69894;SDS011;57172;52.034;5.090;2022-12-07T04:46:43;11.07;;;1.77;;
69894;SDS011;57172;52.034;5.090;2022-12-07T04:49:11;8.77;;;1.80;;
69894;SDS011;57172;52.034;5.090;2022-12-07T04:51:39;8.80;;;1.85;;
69894;SDS011;57172;52.034;5.090;2022-12-07T04:54:06;7.47;;;1.90;;
69894;SDS011;57172;52.034;5.090;2022-12-07T04:56:33;6.43;;;1.60;;
69894;SDS011;57172;52.034;5.090;2022-12-07T04:59:01;7.53;;;1.90;;
69894;SDS011;57172;52.034;5.090;2022-12-07T05:01:28;5.43;;;1.70;;
69894;SDS011;57172;52.034;5.090;2022-12-07T05:03:56;6.45;;;1.92;;
69894;SDS011;57172;52.034;5.090;2022-12-07T05:06:23;6.32;;;1.90;;
69894;SDS011;57172;52.034;5.090;2022-12-07T05:08:49;6.68;;;1.75;;
69894;SDS011;57172;52.034;5.090;2022-12-07T05:11:16;5.85;;;1.70;;
69894;SDS011;57172;52.034;5.090;2022-12-07T05:14:02;5.88;;;1.75;;
69894;SDS011;57172;52.034;5.090;2022-12-07T05:16:41;7.95;;;1.77;;
69894;SDS011;57172;52.034;5.090;2022-12-07T05:19:09;7.55;;;2.03;;
69894;SDS011;57172;52.034;5.090;2022-12-07T05:21:37;6.43;;;1.88;;
69894;SDS011;57172;52.034;5.090;2022-12-07T05:24:05;8.70;;;2.28;;
69894;SDS011;57172;52.034;5.090;2022-12-07T05:26:32;9.63;;;1.80;;
69894;SDS011;57172;52.034;5.090;2022-12-07T05:28:59;9.60;;;1.90;;
69894;SDS011;57172;52.034;5.090;2022-12-07T05:31:26;10.43;;;1.70;;
69894;SDS011;57172;52.034;5.090;2022-12-07T05:33:54;5.80;;;1.73;;
69894;SDS011;57172;52.034;5.090;2022-12-07T05:36:21;6.22;;;1.77;;
69894;SDS011;57172;52.034;5.090;2022-12-07T05:38:48;6.82;;;1.80;;
69894;SDS011;57172;52.034;5.090;2022-12-07T05:41:16;4.90;;;1.77;;
69894;SDS011;57172;52.034;5.090;2022-12-07T05:44:03;7.22;;;1.67;;
69894;SDS011;57172;52.034;5.090;2022-12-07T05:46:30;6.03;;;1.75;;
69894;SDS011;57172;52.034;5.090;2022-12-07T05:48:58;7.85;;;2.00;;
69894;SDS011;57172;52.034;5.090;2022-12-07T05:51:25;6.45;;;1.83;;
69894;SDS011;57172;52.034;5.090;2022-12-07T05:53:52;7.45;;;1.60;;
69894;SDS011;57172;52.034;5.090;2022-12-07T05:56:19;3.92;;;1.70;;
69894;SDS011;57172;52.034;5.090;2022-12-07T05:58:46;6.03;;;1.75;;
69894;SDS011;57172;52.034;5.090;2022-12-07T06:01:31;8.75;;;1.77;;
69894;SDS011;57172;52.034;5.090;2022-12-07T06:03:58;5.38;;;1.50;;
69894;SDS011;57172;52.034;5.090;2022-12-07T06:06:25;6.13;;;1.90;;
69894;SDS011;57172;52.034;5.090;2022-12-07T06:08:52;6.72;;;2.20;;
69894;SDS011;57172;52.034;5.090;2022-12-07T06:11:18;9.20;;;2.00;;
69894;SDS011;57172;52.034;5.090;2022-12-07T06:14:04;9.23;;;2.17;;
69894;SDS011;57172;52.034;5.090;2022-12-07T06:16:31;9.88;;;2.10;;
69894;SDS011;57172;52.034;5.090;2022-12-07T06:18:57;8.70;;;2.00;;
69894;SDS011;57172;52.034;5.090;2022-12-07T06:21:24;9.25;;;2.08;;
69894;SDS011;57172;52.034;5.090;2022-12-07T06:23:52;12.18;;;2.00;;
69894;SDS011;57172;52.034;5.090;2022-12-07T06:26:19;6.75;;;1.60;;
69894;SDS011;57172;52.034;5.090;2022-12-07T06:28:47;9.57;;;2.15;;
69894;SDS011;57172;52.034;5.090;2022-12-07T06:31:14;9.13;;;2.05;;
69894;SDS011;57172;52.034;5.090;2022-12-07T06:33:41;8.55;;;2.00;;
69894;SDS011;57172;52.034;5.090;2022-12-07T06:36:08;8.52;;;1.50;;
69894;SDS011;57172;52.034;5.090;2022-12-07T06:38:36;5.95;;;1.60;;
69894;SDS011;57172;52.034;5.090;2022-12-07T06:41:03;9.20;;;1.90;;
69894;SDS011;57172;52.034;5.090;2022-12-07T06:43:30;7.95;;;1.70;;
69894;SDS011;57172;52.034;5.090;2022-12-07T06:45:57;8.43;;;2.10;;
69894;SDS011;57172;52.034;5.090;2022-12-07T06:48:24;5.45;;;1.63;;
69894;SDS011;57172;52.034;5.090;2022-12-07T06:50:51;8.32;;;1.92;;
69894;SDS011;57172;52.034;5.090;2022-12-07T06:53:21;5.38;;;1.70;;
69894;SDS011;57172;52.034;5.090;2022-12-07T06:55:48;14.32;;;1.77;;
69894;SDS011;57172;52.034;5.090;2022-12-07T06:58:15;7.05;;;1.58;;
69894;SDS011;57172;52.034;5.090;2022-12-07T07:00:44;5.90;;;1.60;;
69894;SDS011;57172;52.034;5.090;2022-12-07T07:03:11;5.05;;;1.77;;
69894;SDS011;57172;52.034;5.090;2022-12-07T07:05:38;6.47;;;2.05;;
69894;SDS011;57172;52.034;5.090;2022-12-07T07:08:05;5.75;;;1.80;;
69894;SDS011;57172;52.034;5.090;2022-12-07T07:10:48;6.00;;;1.73;;
69894;SDS011;57172;52.034;5.090;2022-12-07T07:13:15;6.50;;;1.88;;
69894;SDS011;57172;52.034;5.090;2022-12-07T07:15:42;7.15;;;2.05;;
69894;SDS011;57172;52.034;5.090;2022-12-07T07:18:10;30.80;;;3.47;;
69894;SDS011;57172;52.034;5.090;2022-12-07T07:20:37;8.57;;;2.00;;
69894;SDS011;57172;52.034;5.090;2022-12-07T07:23:04;7.80;;;1.80;;
69894;SDS011;57172;52.034;5.090;2022-12-07T07:25:31;8.10;;;1.77;;
69894;SDS011;57172;52.034;5.090;2022-12-07T07:27:58;9.20;;;1.92;;
69894;SDS011;57172;52.034;5.090;2022-12-07T07:30:26;7.40;;;1.95;;
69894;SDS011;57172;52.034;5.090;2022-12-07T07:32:57;7.55;;;2.25;;
69894;SDS011;57172;52.034;5.090;2022-12-07T07:35:25;8.07;;;1.90;;
69894;SDS011;57172;52.034;5.090;2022-12-07T07:37:53;6.00;;;1.80;;
69894;SDS011;57172;52.034;5.090;2022-12-07T07:40:20;5.40;;;1.88;;
69894;SDS011;57172;52.034;5.090;2022-12-07T07:42:48;6.57;;;1.85;;
69894;SDS011;57172;52.034;5.090;2022-12-07T07:45:16;9.55;;;1.85;;
69894;SDS011;57172;52.034;5.090;2022-12-07T07:47:44;6.68;;;1.80;;
69894;SDS011;57172;52.034;5.090;2022-12-07T07:50:11;4.30;;;1.63;;
69894;SDS011;57172;52.034;5.090;2022-12-07T07:52:38;5.47;;;1.90;;
69894;SDS011;57172;52.034;5.090;2022-12-07T07:55:05;7.25;;;2.60;;
69894;SDS011;57172;52.034;5.090;2022-12-07T07:57:34;4.65;;;2.00;;
69894;SDS011;57172;52.034;5.090;2022-12-07T08:00:05;7.10;;;1.80;;
69894;SDS011;57172;52.034;5.090;2022-12-07T08:02:39;6.53;;;2.00;;
69894;SDS011;57172;52.034;5.090;2022-12-07T08:05:06;9.77;;;2.20;;
69894;SDS011;57172;52.034;5.090;2022-12-07T08:07:34;5.95;;;1.90;;
69894;SDS011;57172;52.034;5.090;2022-12-07T08:10:02;7.68;;;1.98;;
69894;SDS011;57172;52.034;5.090;2022-12-07T08:12:30;5.40;;;2.10;;
69894;SDS011;57172;52.034;5.090;2022-12-07T08:14:57;7.85;;;2.20;;
69894;SDS011;57172;52.034;5.090;2022-12-07T08:17:24;5.70;;;1.95;;
69894;SDS011;57172;52.034;5.090;2022-12-07T08:19:51;7.65;;;2.20;;
69894;SDS011;57172;52.034;5.090;2022-12-07T08:22:18;6.70;;;1.95;;
69894;SDS011;57172;52.034;5.090;2022-12-07T08:24:45;7.07;;;2.20;;
69894;SDS011;57172;52.034;5.090;2022-12-07T08:27:12;5.78;;;1.80;;
69894;SDS011;57172;52.034;5.090;2022-12-07T08:29:38;10.75;;;2.17;;
69894;SDS011;57172;52.034;5.090;2022-12-07T08:32:05;7.15;;;1.90;;
69894;SDS011;57172;52.034;5.090;2022-12-07T08:34:35;9.32;;;2.00;;
69894;SDS011;57172;52.034;5.090;2022-12-07T08:37:03;7.05;;;1.88;;
69894;SDS011;57172;52.034;5.090;2022-12-07T08:39:30;8.65;;;2.00;;
69894;SDS011;57172;52.034;5.090;2022-12-07T08:41:58;7.85;;;1.77;;
69894;SDS011;57172;52.034;5.090;2022-12-07T08:44:25;4.93;;;1.80;;
69894;SDS011;57172;52.034;5.090;2022-12-07T08:46:59;7.80;;;2.10;;
69894;SDS011;57172;52.034;5.090;2022-12-07T08:49:31;8.40;;;1.80;;
69894;SDS011;57172;52.034;5.090;2022-12-07T08:52:02;8.07;;;1.90;;
69894;SDS011;57172;52.034;5.090;2022-12-07T08:54:31;5.30;;;1.63;;
69894;SDS011;57172;52.034;5.090;2022-12-07T08:57:02;8.18;;;2.05;;
69894;SDS011;57172;52.034;5.090;2022-12-07T08:59:30;4.68;;;1.80;;
69894;SDS011;57172;52.034;5.090;2022-12-07T09:01:57;7.70;;;2.03;;
69894;SDS011;57172;52.034;5.090;2022-12-07T09:04:24;5.55;;;1.90;;
69894;SDS011;57172;52.034;5.090;2022-12-07T09:06:50;5.95;;;2.00;;
69894;SDS011;57172;52.034;5.090;2022-12-07T09:09:18;8.75;;;2.00;;
69894;SDS011;57172;52.034;5.090;2022-12-07T09:11:44;7.60;;;1.90;;
69894;SDS011;57172;52.034;5.090;2022-12-07T09:14:12;9.43;;;2.55;;
69894;SDS011;57172;52.034;5.090;2022-12-07T09:16:39;7.63;;;2.30;;
69894;SDS011;57172;52.034;5.090;2022-12-07T09:19:07;10.57;;;2.55;;
69894;SDS011;57172;52.034;5.090;2022-12-07T09:21:34;8.05;;;2.40;;
69894;SDS011;57172;52.034;5.090;2022-12-07T09:24:01;10.35;;;3.00;;
69894;SDS011;57172;52.034;5.090;2022-12-07T09:26:28;5.97;;;2.30;;
69894;SDS011;57172;52.034;5.090;2022-12-07T09:28:55;13.63;;;2.28;;
69894;SDS011;57172;52.034;5.090;2022-12-07T09:31:22;10.02;;;2.40;;
69894;SDS011;57172;52.034;5.090;2022-12-07T09:33:55;8.30;;;2.40;;
69894;SDS011;57172;52.034;5.090;2022-12-07T09:36:23;6.50;;;2.10;;
69894;SDS011;57172;52.034;5.090;2022-12-07T09:38:50;7.43;;;1.80;;
69894;SDS011;57172;52.034;5.090;2022-12-07T09:41:17;6.20;;;2.00;;
69894;SDS011;57172;52.034;5.090;2022-12-07T09:43:45;7.13;;;2.20;;
69894;SDS011;57172;52.034;5.090;2022-12-07T09:46:13;11.48;;;2.67;;
69894;SDS011;57172;52.034;5.090;2022-12-07T09:48:42;6.05;;;2.20;;
69894;SDS011;57172;52.034;5.090;2022-12-07T09:51:13;5.17;;;2.00;;
69894;SDS011;57172;52.034;5.090;2022-12-07T09:53:50;7.22;;;2.15;;
69894;SDS011;57172;52.034;5.090;2022-12-07T09:56:19;7.10;;;2.00;;
69894;SDS011;57172;52.034;5.090;2022-12-07T09:58:47;5.07;;;1.90;;
69894;SDS011;57172;52.034;5.090;2022-12-07T10:01:16;8.90;;;2.50;;
69894;SDS011;57172;52.034;5.090;2022-12-07T10:03:49;11.02;;;2.25;;
69894;SDS011;57172;52.034;5.090;2022-12-07T10:06:20;12.38;;;2.30;;
69894;SDS011;57172;52.034;5.090;2022-12-07T10:08:47;6.97;;;2.10;;
69894;SDS011;57172;52.034;5.090;2022-12-07T10:11:14;8.43;;;2.67;;
69894;SDS011;57172;52.034;5.090;2022-12-07T10:13:52;8.90;;;2.50;;
69894;SDS011;57172;52.034;5.090;2022-12-07T10:19:04;10.88;;;2.00;;
69894;SDS011;57172;52.034;5.090;2022-12-07T10:22:13;7.30;;;2.17;;
69894;SDS011;57172;52.034;5.090;2022-12-07T10:24:43;7.38;;;2.00;;
69894;SDS011;57172;52.034;5.090;2022-12-07T10:27:20;5.50;;;1.75;;
69894;SDS011;57172;52.034;5.090;2022-12-07T10:29:52;8.20;;;1.77;;
69894;SDS011;57172;52.034;5.090;2022-12-07T10:34:46;9.07;;;1.98;;
69894;SDS011;57172;52.034;5.090;2022-12-07T10:37:19;4.88;;;1.63;;
69894;SDS011;57172;52.034;5.090;2022-12-07T10:39:47;9.93;;;1.80;;
69894;SDS011;57172;52.034;5.090;2022-12-07T10:42:20;8.37;;;2.00;;
69894;SDS011;57172;52.034;5.090;2022-12-07T10:45:14;5.50;;;1.60;;
69894;SDS011;57172;52.034;5.090;2022-12-07T11:01:23;4.30;;;1.48;;
69894;SDS011;57172;52.034;5.090;2022-12-07T11:04:16;3.40;;;1.30;;
69894;SDS011;57172;52.034;5.090;2022-12-07T11:06:51;4.57;;;1.40;;
69894;SDS011;57172;52.034;5.090;2022-12-07T11:09:51;4.07;;;1.33;;
69894;SDS011;57172;52.034;5.090;2022-12-07T11:25:50;7.90;;;1.67;;
69894;SDS011;57172;52.034;5.090;2022-12-07T11:28:32;5.20;;;1.40;;
69894;SDS011;57172;52.034;5.090;2022-12-07T11:31:28;7.03;;;1.70;;
69894;SDS011;57172;52.034;5.090;2022-12-07T11:34:06;4.63;;;1.40;;
69894;SDS011;57172;52.034;5.090;2022-12-07T11:36:45;4.50;;;1.50;;
69894;SDS011;57172;52.034;5.090;2022-12-07T11:42:04;8.15;;;2.08;;
69894;SDS011;57172;52.034;5.090;2022-12-07T11:47:16;5.25;;;1.60;;
69894;SDS011;57172;52.034;5.090;2022-12-07T11:52:41;5.65;;;1.70;;
69894;SDS011;57172;52.034;5.090;2022-12-07T11:55:16;6.80;;;1.80;;
69894;SDS011;57172;52.034;5.090;2022-12-07T11:57:51;6.68;;;1.60;;
69894;SDS011;57172;52.034;5.090;2022-12-07T12:00:31;6.18;;;1.60;;
69894;SDS011;57172;52.034;5.090;2022-12-07T12:03:01;3.00;;;1.50;;
69894;SDS011;57172;52.034;5.090;2022-12-07T12:05:34;6.90;;;1.70;;
69894;SDS011;57172;52.034;5.090;2022-12-07T12:22:26;5.97;;;1.70;;
69894;SDS011;57172;52.034;5.090;2022-12-07T12:25:28;4.32;;;1.40;;
69894;SDS011;57172;52.034;5.090;2022-12-07T12:28:02;5.05;;;1.50;;
69894;SDS011;57172;52.034;5.090;2022-12-07T12:30:36;4.77;;;1.40;;
69894;SDS011;57172;52.034;5.090;2022-12-07T12:35:40;7.53;;;1.73;;
69894;SDS011;57172;52.034;5.090;2022-12-07T12:40:56;4.57;;;1.25;;
69894;SDS011;57172;52.034;5.090;2022-12-07T12:43:44;4.50;;;1.33;;
69894;SDS011;57172;52.034;5.090;2022-12-07T12:49:30;4.80;;;1.50;;
69894;SDS011;57172;52.034;5.090;2022-12-07T12:54:35;6.30;;;1.48;;
69894;SDS011;57172;52.034;5.090;2022-12-07T12:57:07;6.00;;;1.83;;
69894;SDS011;57172;52.034;5.090;2022-12-07T13:02:28;5.50;;;1.77;;
69894;SDS011;57172;52.034;5.090;2022-12-07T13:15:53;4.10;;;1.45;;
69894;SDS011;57172;52.034;5.090;2022-12-07T13:23:28;2.57;;;1.23;;
69894;SDS011;57172;52.034;5.090;2022-12-07T13:26:14;9.05;;;1.40;;
69894;SDS011;57172;52.034;5.090;2022-12-07T13:34:27;5.63;;;1.23;;
69894;SDS011;57172;52.034;5.090;2022-12-07T13:36:54;5.57;;;1.40;;
69894;SDS011;57172;52.034;5.090;2022-12-07T13:39:23;4.35;;;1.45;;
69894;SDS011;57172;52.034;5.090;2022-12-07T13:41:52;3.95;;;1.40;;
69894;SDS011;57172;52.034;5.090;2022-12-07T13:44:24;2.97;;;1.20;;
69894;SDS011;57172;52.034;5.090;2022-12-07T13:47:06;5.03;;;1.40;;
69894;SDS011;57172;52.034;5.090;2022-12-07T13:50:00;8.43;;;1.40;;
69894;SDS011;57172;52.034;5.090;2022-12-07T13:52:30;6.97;;;1.30;;
69894;SDS011;57172;52.034;5.090;2022-12-07T13:57:24;4.78;;;1.40;;
69894;SDS011;57172;52.034;5.090;2022-12-07T13:59:53;4.82;;;1.50;;
69894;SDS011;57172;52.034;5.090;2022-12-07T14:02:21;5.70;;;1.60;;
69894;SDS011;57172;52.034;5.090;2022-12-07T14:05:14;2.60;;;1.10;;
69894;SDS011;57172;52.034;5.090;2022-12-07T14:07:59;2.38;;;0.98;;
69894;SDS011;57172;52.034;5.090;2022-12-07T14:10:32;3.95;;;1.20;;
69894;SDS011;57172;52.034;5.090;2022-12-07T14:13:02;3.10;;;1.20;;
69894;SDS011;57172;52.034;5.090;2022-12-07T14:15:49;5.57;;;1.60;;
69894;SDS011;57172;52.034;5.090;2022-12-07T14:21:02;2.40;;;1.20;;
69894;SDS011;57172;52.034;5.090;2022-12-07T14:23:41;2.78;;;1.30;;
69894;SDS011;57172;52.034;5.090;2022-12-07T14:28:44;4.17;;;1.30;;
69894;SDS011;57172;52.034;5.090;2022-12-07T14:31:13;4.68;;;1.40;;
69894;SDS011;57172;52.034;5.090;2022-12-07T14:33:51;3.10;;;1.20;;
69894;SDS011;57172;52.034;5.090;2022-12-07T14:36:18;3.67;;;1.33;;
69894;SDS011;57172;52.034;5.090;2022-12-07T14:38:45;3.63;;;1.30;;
69894;SDS011;57172;52.034;5.090;2022-12-07T14:41:13;5.80;;;1.23;;
69894;SDS011;57172;52.034;5.090;2022-12-07T14:44:07;4.85;;;1.40;;
69894;SDS011;57172;52.034;5.090;2022-12-07T14:46:58;3.63;;;1.27;;
69894;SDS011;57172;52.034;5.090;2022-12-07T14:49:45;5.03;;;1.60;;
69894;SDS011;57172;52.034;5.090;2022-12-07T14:52:46;3.03;;;1.50;;
69894;SDS011;57172;52.034;5.090;2022-12-07T14:55:26;4.50;;;1.50;;
69894;SDS011;57172;52.034;5.090;2022-12-07T14:57:57;5.65;;;1.60;;
69894;SDS011;57172;52.034;5.090;2022-12-07T15:00:26;3.38;;;1.58;;
69894;SDS011;57172;52.034;5.090;2022-12-07T15:02:54;5.20;;;1.30;;
69894;SDS011;57172;52.034;5.090;2022-12-07T15:05:21;4.75;;;1.98;;
69894;SDS011;57172;52.034;5.090;2022-12-07T15:07:48;6.57;;;1.47;;
69894;SDS011;57172;52.034;5.090;2022-12-07T15:10:17;3.55;;;1.30;;
69894;SDS011;57172;52.034;5.090;2022-12-07T15:12:50;4.93;;;1.30;;
69894;SDS011;57172;52.034;5.090;2022-12-07T15:15:17;4.53;;;1.42;;
69894;SDS011;57172;52.034;5.090;2022-12-07T15:17:44;4.70;;;1.50;;
69894;SDS011;57172;52.034;5.090;2022-12-07T15:20:12;3.60;;;1.50;;
69894;SDS011;57172;52.034;5.090;2022-12-07T15:22:40;5.63;;;1.80;;
69894;SDS011;57172;52.034;5.090;2022-12-07T15:25:08;5.97;;;1.80;;
69894;SDS011;57172;52.034;5.090;2022-12-07T15:27:38;6.63;;;1.77;;
69894;SDS011;57172;52.034;5.090;2022-12-07T15:30:05;4.53;;;1.80;;
69894;SDS011;57172;52.034;5.090;2022-12-07T15:32:32;7.20;;;1.83;;
69894;SDS011;57172;52.034;5.090;2022-12-07T15:34:59;4.10;;;2.05;;
69894;SDS011;57172;52.034;5.090;2022-12-07T15:37:27;5.07;;;2.00;;
69894;SDS011;57172;52.034;5.090;2022-12-07T15:39:54;6.03;;;2.15;;
69894;SDS011;57172;52.034;5.090;2022-12-07T15:42:21;5.05;;;2.05;;
69894;SDS011;57172;52.034;5.090;2022-12-07T15:44:47;5.90;;;2.10;;
69894;SDS011;57172;52.034;5.090;2022-12-07T15:47:31;4.55;;;1.83;;
69894;SDS011;57172;52.034;5.090;2022-12-07T15:50:21;3.97;;;1.65;;
69894;SDS011;57172;52.034;5.090;2022-12-07T15:52:48;4.85;;;1.90;;
69894;SDS011;57172;52.034;5.090;2022-12-07T15:55:15;5.28;;;1.92;;
69894;SDS011;57172;52.034;5.090;2022-12-07T15:57:42;4.30;;;2.00;;
69894;SDS011;57172;52.034;5.090;2022-12-07T16:00:09;3.17;;;1.65;;
69894;SDS011;57172;52.034;5.090;2022-12-07T16:02:37;6.28;;;2.20;;
69894;SDS011;57172;52.034;5.090;2022-12-07T16:05:05;4.97;;;2.20;;
69894;SDS011;57172;52.034;5.090;2022-12-07T16:07:32;6.88;;;2.70;;
69894;SDS011;57172;52.034;5.090;2022-12-07T16:09:59;5.97;;;2.37;;
69894;SDS011;57172;52.034;5.090;2022-12-07T16:12:26;5.38;;;2.00;;
69894;SDS011;57172;52.034;5.090;2022-12-07T16:14:53;6.55;;;2.10;;
69894;SDS011;57172;52.034;5.090;2022-12-07T16:17:20;3.92;;;1.83;;
69894;SDS011;57172;52.034;5.090;2022-12-07T16:19:47;5.75;;;2.00;;
69894;SDS011;57172;52.034;5.090;2022-12-07T16:22:14;4.07;;;2.03;;
69894;SDS011;57172;52.034;5.090;2022-12-07T16:24:41;5.35;;;2.00;;
69894;SDS011;57172;52.034;5.090;2022-12-07T16:27:08;5.72;;;1.80;;
69894;SDS011;57172;52.034;5.090;2022-12-07T16:29:34;4.32;;;1.90;;
69894;SDS011;57172;52.034;5.090;2022-12-07T16:32:01;6.03;;;2.30;;
69894;SDS011;57172;52.034;5.090;2022-12-07T16:34:28;5.07;;;2.10;;
69894;SDS011;57172;52.034;5.090;2022-12-07T16:36:55;3.47;;;1.83;;
69894;SDS011;57172;52.034;5.090;2022-12-07T16:39:31;5.32;;;2.05;;
69894;SDS011;57172;52.034;5.090;2022-12-07T16:41:59;5.15;;;1.90;;
69894;SDS011;57172;52.034;5.090;2022-12-07T16:44:27;5.15;;;2.17;;
69894;SDS011;57172;52.034;5.090;2022-12-07T16:46:54;3.83;;;1.80;;
69894;SDS011;57172;52.034;5.090;2022-12-07T16:49:21;5.65;;;2.20;;
69894;SDS011;57172;52.034;5.090;2022-12-07T16:51:50;5.82;;;2.00;;
69894;SDS011;57172;52.034;5.090;2022-12-07T16:54:37;4.80;;;2.10;;
69894;SDS011;57172;52.034;5.090;2022-12-07T16:57:04;4.43;;;2.08;;
69894;SDS011;57172;52.034;5.090;2022-12-07T16:59:31;5.40;;;2.30;;
69894;SDS011;57172;52.034;5.090;2022-12-07T17:01:58;4.68;;;1.95;;
69894;SDS011;57172;52.034;5.090;2022-12-07T17:04:25;5.05;;;2.30;;
69894;SDS011;57172;52.034;5.090;2022-12-07T17:06:52;5.60;;;2.30;;
69894;SDS011;57172;52.034;5.090;2022-12-07T17:09:19;5.70;;;2.30;;
69894;SDS011;57172;52.034;5.090;2022-12-07T17:11:47;4.27;;;2.10;;
69894;SDS011;57172;52.034;5.090;2022-12-07T17:14:13;6.90;;;2.30;;
69894;SDS011;57172;52.034;5.090;2022-12-07T17:16:59;4.70;;;2.20;;
69894;SDS011;57172;52.034;5.090;2022-12-07T17:19:26;4.45;;;2.20;;
69894;SDS011;57172;52.034;5.090;2022-12-07T17:21:53;5.20;;;2.20;;
69894;SDS011;57172;52.034;5.090;2022-12-07T17:24:19;4.47;;;2.03;;